createdAt,value
2018-08-06T00:00:22.382Z,13.39
2018-08-06T00:06:17.387Z,14.31
2018-08-06T00:12:12.385Z,12.39
2018-08-06T00:18:07.386Z,15
2018-08-06T00:24:02.428Z,12.23
2018-08-06T00:29:57.451Z,16.77
2018-08-06T00:35:52.435Z,13.05
2018-08-06T00:41:47.411Z,11.73
2018-08-06T00:47:42.428Z,12.88
2018-08-06T00:53:37.425Z,12.49
2018-08-06T00:59:32.433Z,15.07
2018-08-06T01:05:27.434Z,17.05
2018-08-06T01:11:22.460Z,13.51
2018-08-06T01:17:17.469Z,14.38
2018-08-06T01:23:12.503Z,13.9
2018-08-06T01:29:07.449Z,13.69
2018-08-06T01:35:02.496Z,16.06
2018-08-06T01:40:57.472Z,12.44
2018-08-06T01:46:52.520Z,15.58
2018-08-06T01:52:47.546Z,14.08
2018-08-06T01:58:42.476Z,14.07
2018-08-06T02:04:37.500Z,13.92
2018-08-06T02:10:32.473Z,13.42
2018-08-06T02:16:27.559Z,15.24
2018-08-06T02:22:22.474Z,12.76
2018-08-06T02:28:17.509Z,13.21
2018-08-06T02:34:12.537Z,13.33
2018-08-06T02:40:07.571Z,14.2
2018-08-06T02:46:02.512Z,13.69
2018-08-06T02:51:57.520Z,11.63
2018-08-06T02:57:52.599Z,12.79
2018-08-06T03:03:47.505Z,12.7
2018-08-06T03:09:42.522Z,11.97
2018-08-06T03:15:37.556Z,11.82
2018-08-06T03:21:32.551Z,12.86
2018-08-06T03:27:27.575Z,11.91
2018-08-06T03:33:22.599Z,11.45
2018-08-06T03:39:17.575Z,14.68
2018-08-06T03:45:12.618Z,14.57
2018-08-06T03:51:07.564Z,14.41
2018-08-06T03:57:02.636Z,17.48
2018-08-06T04:02:57.627Z,13.7
2018-08-06T04:08:52.592Z,12.71
2018-08-06T04:14:47.628Z,12.41
2018-08-06T04:20:42.640Z,16.42
2018-08-06T04:26:37.654Z,12.47
2018-08-06T04:32:32.696Z,12.78
2018-08-06T04:38:27.687Z,12.5
2018-08-06T04:44:22.626Z,13.08
2018-08-06T04:50:17.655Z,14.55
2018-08-06T04:56:12.670Z,16.48
2018-08-06T05:02:07.749Z,15.64
2018-08-06T05:08:02.636Z,13.8
2018-08-06T05:13:57.655Z,15.11
2018-08-06T05:19:52.646Z,15.22
2018-08-06T05:25:47.702Z,16.18
2018-08-06T05:31:42.638Z,15.25
2018-08-06T05:37:37.627Z,15.93
2018-08-06T05:43:32.688Z,21.72
2018-08-06T05:49:27.743Z,14.4
2018-08-06T05:55:22.720Z,18.05
2018-08-06T06:01:17.707Z,15.78
2018-08-06T06:07:12.655Z,14.46
2018-08-06T06:13:07.665Z,13.43
2018-08-06T06:19:02.724Z,15.5
2018-08-06T06:24:57.676Z,20.8
2018-08-06T06:30:52.681Z,16.8
2018-08-06T06:36:47.701Z,21.69
2018-08-06T06:42:42.683Z,16.2
2018-08-06T06:48:37.713Z,16.69
2018-08-06T06:54:32.791Z,19.81
2018-08-06T07:00:27.751Z,15.27
2018-08-06T07:06:22.745Z,16.41
2018-08-06T07:12:17.732Z,17.56
2018-08-06T07:18:12.724Z,15.85
2018-08-06T07:24:07.733Z,19.08
2018-08-06T07:30:02.975Z,14.4
2018-08-06T07:35:57.750Z,19.06
2018-08-06T07:41:52.784Z,13.57
2018-08-06T07:47:47.759Z,19.23
2018-08-06T07:53:42.782Z,14.31
2018-08-06T07:59:37.843Z,12.63
2018-08-06T08:05:33.441Z,14.7
2018-08-06T08:11:28.923Z,12.63
2018-08-06T08:17:22.766Z,12.04
2018-08-06T08:23:17.813Z,16.84
2018-08-06T08:29:12.802Z,19.02
2018-08-06T08:35:07.820Z,13.28
2018-08-06T08:41:02.822Z,14.73
2018-08-06T08:46:57.816Z,11.4
2018-08-06T08:52:52.881Z,10.6
2018-08-06T08:58:47.976Z,10.08
2018-08-06T09:04:42.892Z,11.27
2018-08-06T09:10:37.834Z,9
2018-08-06T09:16:32.820Z,8.32
2018-08-06T09:22:27.822Z,8.06
2018-08-06T09:28:22.933Z,9.51
2018-08-06T09:34:17.837Z,7.52
2018-08-06T09:40:12.947Z,13.23
2018-08-06T09:46:07.889Z,8.24
2018-08-06T09:52:02.918Z,7.94
2018-08-06T09:57:57.861Z,6.96
2018-08-06T10:03:52.869Z,7.26
2018-08-06T10:09:47.884Z,7.55
2018-08-06T10:15:42.903Z,11.79
2018-08-06T10:21:37.955Z,7.29
2018-08-06T10:27:32.901Z,5.98
2018-08-06T10:33:27.921Z,6.48
2018-08-06T10:39:22.963Z,8.64
2018-08-06T10:45:17.925Z,6.26
2018-08-06T10:51:12.939Z,6.33
2018-08-06T10:57:07.950Z,6.15
2018-08-06T11:03:02.917Z,6
2018-08-06T11:08:58.047Z,5.97
2018-08-06T11:14:52.959Z,5.88
2018-08-06T11:20:47.946Z,5.68
2018-08-06T11:26:42.969Z,5.62
2018-08-06T11:32:37.964Z,5.3
2018-08-06T11:38:32.989Z,4.75
2018-08-06T11:44:27.959Z,5.26
2018-08-06T11:50:23.029Z,4.95
2018-08-06T11:56:18.017Z,4.94
2018-08-06T12:02:13.200Z,4.83
2018-08-06T12:08:08.044Z,4.47
2018-08-06T12:14:03.004Z,4.99
2018-08-06T12:19:58.009Z,4.47
2018-08-06T12:25:53.174Z,4.4
2018-08-06T12:31:48.008Z,4.57
2018-08-06T12:37:43.076Z,4.67
2018-08-06T12:43:38.009Z,4.22
2018-08-06T12:49:33.026Z,4.8
2018-08-06T12:55:28.018Z,4.1
2018-08-06T13:01:23.035Z,3.99
2018-08-06T13:07:18.057Z,3.73
2018-08-06T13:13:13.059Z,3.81
2018-08-06T13:19:08.134Z,3.73
2018-08-06T13:25:03.097Z,4.05
2018-08-06T13:30:58.066Z,3.49
2018-08-06T13:36:53.136Z,3.69
2018-08-06T13:42:48.087Z,3.59
2018-08-06T13:48:43.091Z,3.63
2018-08-06T13:54:38.092Z,3.48
2018-08-06T14:00:33.086Z,3.12
2018-08-06T14:06:28.116Z,3.58
2018-08-06T14:12:23.108Z,3.11
2018-08-06T14:18:18.115Z,3.18
2018-08-06T14:24:13.132Z,3.47
2018-08-06T14:30:08.131Z,3.16
2018-08-06T14:36:03.120Z,3.61
2018-08-06T14:41:58.119Z,3.33
2018-08-06T14:47:53.136Z,3.95
2018-08-06T14:53:48.148Z,3.41
2018-08-06T14:59:43.186Z,3.59
2018-08-06T15:05:38.174Z,3.66
2018-08-06T15:11:33.212Z,3.9
2018-08-06T15:17:28.220Z,4.13
2018-08-06T15:23:23.190Z,5.37
2018-08-06T15:29:18.169Z,4.29
2018-08-06T15:35:13.273Z,4.1
2018-08-06T15:41:08.191Z,6.13
2018-08-06T15:47:03.189Z,4.28
2018-08-06T15:52:58.213Z,4.1
2018-08-06T15:58:53.247Z,4.58
2018-08-06T16:04:48.266Z,4.8
2018-08-06T16:10:43.247Z,5.1
2018-08-06T16:16:38.195Z,4.27
2018-08-06T16:22:33.212Z,4.36
2018-08-06T16:28:28.253Z,15.41
2018-08-06T16:34:23.293Z,5.24
2018-08-06T16:40:18.309Z,8
2018-08-06T16:46:13.260Z,4.88
2018-08-06T16:52:08.331Z,5.26
2018-08-06T16:58:03.316Z,5.55
2018-08-06T17:03:58.295Z,11.57
2018-08-06T17:09:53.319Z,6.24
2018-08-06T17:15:48.268Z,7.58
2018-08-06T17:21:43.267Z,7.47
2018-08-06T17:27:38.296Z,8.23
2018-08-06T17:33:33.321Z,10.68
2018-08-06T17:39:28.348Z,7.61
2018-08-06T17:45:23.303Z,8.87
2018-08-06T17:51:18.300Z,7.64
2018-08-06T17:57:13.321Z,8.6
2018-08-06T18:03:08.301Z,9.47
2018-08-06T18:09:03.312Z,8.03
2018-08-06T18:14:58.351Z,8.93
2018-08-06T18:20:53.336Z,7.67
2018-08-06T18:26:48.332Z,6.38
2018-08-06T18:32:43.405Z,7.18
2018-08-06T18:38:38.383Z,6.17
2018-08-06T18:44:33.357Z,7.14
2018-08-06T18:50:28.408Z,7.53
2018-08-06T18:56:23.447Z,7.67
2018-08-06T19:02:18.412Z,6.52
2018-08-06T19:08:13.396Z,6.64
2018-08-06T19:14:08.423Z,6.57
2018-08-06T19:20:03.479Z,8.8
2018-08-06T19:25:58.460Z,7.07
2018-08-06T19:31:53.469Z,7.5
2018-08-06T19:37:48.478Z,9.31
2018-08-06T19:43:43.425Z,8.32
2018-08-06T19:49:38.500Z,13.1
2018-08-06T19:55:33.406Z,8
2018-08-06T20:01:28.424Z,8.07
2018-08-06T20:07:23.462Z,9.87
2018-08-06T20:13:18.453Z,9.39
2018-08-06T20:19:13.454Z,9.37
2018-08-06T20:25:08.483Z,8.52
2018-08-06T20:31:03.500Z,11.5
2018-08-06T20:36:58.457Z,9.88
2018-08-06T20:42:53.468Z,12.04
2018-08-06T20:48:48.489Z,9.52
2018-08-06T20:54:43.467Z,9.69
2018-08-06T21:00:38.514Z,9.67
2018-08-06T21:06:33.480Z,29.07
2018-08-06T21:12:28.490Z,11.5
2018-08-06T21:18:23.516Z,9.96
2018-08-06T21:24:18.510Z,11.19
2018-08-06T21:30:13.502Z,11.95
2018-08-06T21:36:08.509Z,9.71
2018-08-06T21:42:03.507Z,9.84
2018-08-06T21:47:58.550Z,13.03
2018-08-06T21:53:53.534Z,13.34
2018-08-06T21:59:48.519Z,10.72
2018-08-06T22:05:43.612Z,10.7
2018-08-06T22:11:38.550Z,10.13
2018-08-06T22:17:33.542Z,10.53
2018-08-06T22:23:28.646Z,10.57
2018-08-06T22:29:23.547Z,10.6
2018-08-06T22:35:18.600Z,10.05
2018-08-06T22:41:13.587Z,10.84
2018-08-06T22:47:08.609Z,11.84
2018-08-06T22:53:03.562Z,12.03
2018-08-06T22:58:58.622Z,10.72
2018-08-06T23:04:53.584Z,14.52
2018-08-06T23:10:48.641Z,11.74
2018-08-06T23:16:43.616Z,11.4
2018-08-06T23:22:38.612Z,11.08
2018-08-06T23:28:33.623Z,14.12
2018-08-06T23:34:28.594Z,12.29
2018-08-06T23:40:23.633Z,11.46
2018-08-06T23:46:18.627Z,17.98
2018-08-06T23:52:13.649Z,14.67
2018-08-06T23:58:08.658Z,13.84
